Latest Coastal Weather Observations for St Lawrence

IDQ60701

Issued at 8:55 am EST Sunday 26 October 2014 (issued every 10 minutes, with the page automatically refreshed every 10 minutes)

About coastal observations | Map of coastal stations | Coastal observations for QLD | Marine services | Other Formats
Station Details ID: 033210 Name: ST LAWRENCE Lat: -22.35 Lon: 149.52 Height: 9.19 m
Data from the previous 72 hours. | See also: Recent months at St Lawrence
Date/Time
EST
Temp

°C
Wind Pressure Rain
since 9am
mm
Weather Cloud Vis
km
Sea
Height
m
Swell
Dir
 
Speed
knots
Gust
knots
hPa Trend Height
m
Period
s
Dir
26/08:30am 24.8 NNE 5 7 1018.5 - 0.0 - - - - - - -
26/08:00am 23.7 NNW 3 5 1018.5 - 0.0 - - - - - - -
26/07:30am 22.9 NW 3 5 1018.5 - 0.0 - - - - - - -
26/07:00am 20.8 WSW 2 4 1018.2 - 0.0 - - - - - - -
26/06:30am 18.2 CALM 0 0 1017.9 - 0.0 - - - - - - -
26/06:00am 16.5 CALM 0 0 1017.7 - 0.0 - - - - - - -
26/05:30am 15.8 CALM 0 0 1017.3 - 0.0 - - - - - - -
26/05:00am 16.2 CALM 0 0 1017.0 - 0.0 - - - - - - -
26/04:30am 16.1 WSW 1 3 1016.9 - 0.0 - - - - - - -
26/04:00am 16.2 CALM 0 0 1016.5 - 0.0 - - - - - - -
26/03:30am 16.7 CALM 0 0 1016.5 - 0.0 - - - - - - -
26/03:00am 17.0 CALM 0 0 1016.5 - 0.0 - - - - - - -
26/02:30am 17.0 CALM 0 0 1016.5 - 0.0 - - - - - - -
26/02:00am 17.6 CALM 0 2 1016.8 - 0.0 - - - - - - -
26/01:30am 18.0 CALM 0 0 1016.9 - 0.0 - - - - - - -
26/01:00am 18.5 CALM 0 0 1017.3 - 0.0 - - - - - - -
26/12:30am 18.6 CALM 0 0 1017.7 - 0.0 - - - - - - -
26/12:00am 19.0 WSW 0 0 1018.1 - 0.0 - - - - - - -
 
Date/Time
EST
Temp

°C
Wind Pressure Rain
since 9am
mm
Weather Cloud Vis
km
Sea
Height
m
Swell
Dir
 
Speed
knots
Gust
knots
hPa Trend Height
m
Period
s
Dir
25/11:30pm 19.5 CALM 0 0 1018.5 - 0.0 - - - - - - -
25/11:00pm 19.9 CALM 0 0 1018.7 - 0.0 - - - - - - -
25/10:30pm 20.3 WSW 1 3 1019.0 - 0.0 - - - - - - -
25/10:00pm 21.5 NNE 4 6 1019.2 - 0.0 - - - - - - -
25/09:30pm 21.8 NNE 5 7 1019.1 - 0.0 - - - - - - -
25/09:00pm 21.9 NE 4 5 1019.1 - 0.0 - - - - - - -
25/08:30pm 22.1 NE 5 7 1018.9 - 0.0 - - - - - - -
25/08:00pm 22.4 NNE 7 9 1018.7 - 0.0 - - - - - - -
25/07:30pm 22.7 NNE 7 10 1018.5 - 0.0 - - - - - - -
25/07:00pm 22.9 NNE 8 11 1018.2 - 0.0 - - - - - - -
25/06:30pm 23.2 NNE 9 12 1017.7 - 0.0 - - - - - - -
25/06:00pm 23.6 NNE 10 13 1017.4 - 0.0 - - - - - - -
25/05:30pm 24.6 NNE 10 14 1016.9 - 0.0 - - - - - - -
25/05:00pm 25.3 NNE 10 15 1016.4 - 0.0 - - - - - - -
25/04:30pm 26.0 NNE 11 15 1016.1 - 0.0 - - - - - - -
25/04:00pm 26.3 NE 11 15 1015.9 - 0.0 - - - - - - -
25/03:30pm 27.0 NE 10 13 1016.1 - 0.0 - - - - - - -
25/03:00pm 27.4 NE 10 13 1016.4 - 0.0 - - - - - - -
25/02:30pm 27.8 NNE 10 13 1016.8 - 0.0 - - - - - - -
25/02:00pm 28.2 NE 9 12 1017.1 - 0.0 - - - - - - -
25/01:30pm 27.9 NNE 9 12 1017.5 - 0.0 - - - - - - -
25/01:00pm 28.2 NNE 11 15 1017.7 - 0.0 - - - - - - -
25/12:30pm 28.4 NNE 11 15 1018.2 - 0.0 - - - - - - -
25/12:00pm 27.8 NNE 9 13 1018.8 - 0.0 - - - - - - -
25/11:30am 27.0 NNE 9 12 1019.4 - 0.0 - - - - - - -
25/11:00am 26.7 NNE 9 13 1019.8 - 0.0 - - - - - - -
25/10:30am 26.8 NNE 8 11 1020.3 - 0.0 - - - - - - -
25/10:00am 25.8 NE 5 8 1020.7 - 0.0 - - - - - - -
25/09:30am 25.0 N 7 9 1021.1 - 0.0 - - - - - - -
25/09:00am 23.7 NNE 5 7 1021.3 - 0.0 - - - - - - -
25/08:30am 24.0 ENE 4 7 1021.3 - 0.0 - - - - - - -
25/08:00am 23.2 SSE 3 5 1021.1 - 0.0 - - - - - - -
25/07:30am 21.4 S 3 5 1020.7 - 0.0 - - - - - - -
25/07:00am 19.5 SSW 3 5 1020.4 - 0.0 - - - - - - -
25/06:30am 17.2 SSW 3 4 1020.2 - 0.0 - - - - - - -
25/06:00am 15.7 SW 3 4 1019.9 - 0.0 - - - - - - -
25/05:30am 15.0 SW 3 4 1019.6 - 0.0 - - - - - - -
25/05:00am 15.0 SW 2 4 1019.5 - 0.0 - - - - - - -
25/04:30am 15.5 CALM 0 0 1019.2 - 0.0 - - - - - - -
25/04:00am 16.6 S 3 4 1019.2 - 0.0 - - - - - - -
25/03:30am 17.0 SSE 4 6 1019.1 - 0.0 - - - - - - -
25/03:00am 15.6 CALM 0 3 1019.0 - 0.0 - - - - - - -
25/02:30am 16.5 S 1 4 1019.1 - 0.0 - - - - - - -
25/02:00am 17.0 S 2 5 1019.2 - 0.0 - - - - - - -
25/01:30am 16.3 SW 2 4 1019.6 - 0.0 - - - - - - -
25/01:00am 16.8 SW 1 3 1020.0 - 0.0 - - - - - - -
25/12:30am 16.9 CALM 0 0 1020.5 - 0.0 - - - - - - -
25/12:00am 17.5 CALM 0 5 1020.9 - 0.0 - - - - - - -
 
Date/Time
EST
Temp

°C
Wind Pressure Rain
since 9am
mm
Weather Cloud Vis
km
Sea
Height
m
Swell
Dir
 
Speed
knots
Gust
knots
hPa Trend Height
m
Period
s
Dir
24/11:30pm 18.5 SW 3 4 1021.1 - 0.0 - - - - - - -
24/11:00pm 20.7 ENE 3 5 1021.4 - 0.0 - - - - - - -
24/10:30pm 20.7 ENE 3 4 1021.4 - 0.0 - - - - - - -
24/10:00pm 21.1 ENE 4 5 1021.2 - 0.0 - - - - - - -
24/09:30pm 21.0 NE 5 7 1021.1 - 0.0 - - - - - - -
24/09:00pm 21.0 ENE 5 6 1021.1 - 0.0 - - - - - - -
24/08:30pm 21.4 NE 7 9 1020.8 - 0.0 - - - - - - -
24/08:00pm 21.6 NE 7 9 1020.5 - 0.0 - - - - - - -
24/07:30pm 21.7 NE 5 7 1020.2 - 0.0 - - - - - - -
24/07:00pm 22.3 NNE 9 12 1019.9 - 0.0 - - - - - - -
24/06:30pm 22.5 NNE 9 12 1019.5 - 0.0 - - - - - - -
24/06:00pm 23.1 NNE 11 15 1019.2 - 0.0 - - - - - - -
24/05:30pm 23.7 NNE 11 16 1018.8 - 0.0 - - - - - - -
24/05:00pm 24.8 NNE 11 15 1018.4 - 0.0 - - - - - - -
24/04:30pm 25.7 NNE 12 16 1018.0 - 0.0 - - - - - - -
24/04:00pm 25.5 NNE 13 18 1017.8 - 0.0 - - - - - - -
24/03:30pm 26.0 NNE 12 19 1017.6 - 0.0 - - - - - - -
24/03:00pm 26.4 NNE 13 16 1017.6 - 0.0 - - - - - - -
24/02:30pm 26.3 NNE 12 17 1017.8 - 0.0 - - - - - - -
24/02:00pm 27.2 NNE 12 16 1018.0 - 0.0 - - - - - - -
24/01:30pm 27.3 NNE 11 16 1018.4 - 0.0 - - - - - - -
24/01:00pm 27.5 NNE 12 16 1018.8 - 0.0 - - - - - - -
24/12:30pm 27.8 NNE 9 13 1019.2 - 0.0 - - - - - - -
24/12:00pm 27.4 ENE 8 13 1019.7 - 0.0 - - - - - - -
24/11:30am 26.4 ENE 8 12 1020.2 - 0.0 - - - - - - -
24/11:00am 25.6 NE 6 10 1020.7 - 0.0 - - - - - - -
24/10:30am 25.6 NNE 8 11 1020.9 - 0.0 - - - - - - -
24/10:00am 25.3 NNE 7 10 1021.2 - 0.0 - - - - - - -
24/09:30am 24.7 NE 7 10 1021.4 - 0.0 - - - - - - -
24/09:00am 23.7 NNE 4 10 1021.4 - 0.0 - - - - - - -
24/08:30am 23.2 N 3 7 1021.4 - 0.0 - - - - - - -
24/08:00am 22.2 S 4 7 1021.3 - 0.0 - - - - - - -
24/07:30am 20.5 S 4 6 1021.1 - 0.0 - - - - - - -
24/07:00am 18.8 S 6 8 1021.0 - 0.0 - - - - - - -
24/06:30am 16.5 S 4 6 1020.8 - 0.0 - - - - - - -
24/06:00am 14.6 SW 3 4 1020.5 - 0.0 - - - - - - -
24/05:30am 14.1 SSW 3 4 1020.0 - 0.0 - - - - - - -
24/05:00am 14.1 S 3 5 1019.6 - 0.0 - - - - - - -
24/04:30am 13.6 SW 3 4 1019.2 - 0.0 - - - - - - -
24/04:00am 14.1 S 3 5 1019.0 - 0.0 - - - - - - -
24/03:30am 15.0 CALM 0 0 1018.8 - 0.0 - - - - - - -
24/03:00am 15.8 SW 3 5 1019.1 - 0.0 - - - - - - -
24/02:30am 15.6 SW 3 4 1019.2 - 0.0 - - - - - - -
24/02:00am 15.5 WSW 2 4 1019.1 - 0.0 - - - - - - -
24/01:30am 15.2 SW 2 3 1019.7 - 0.0 - - - - - - -
24/01:00am 15.6 WSW 4 5 1020.2 - 0.0 - - - - - - -
24/12:30am 16.6 CALM 0 0 1020.3 - 0.0 - - - - - - -
24/12:00am 17.2 CALM 0 3 1020.6 - 0.0 - - - - - - -
 
Date/Time
EST
Temp

°C
Wind Pressure Rain
since 9am
mm
Weather Cloud Vis
km
Sea
Height
m
Swell
Dir
 
Speed
knots
Gust
knots
hPa Trend Height
m
Period
s
Dir
23/11:30pm 17.0 WSW 1 3 1020.8 - 0.0 - - - - - - -
23/11:00pm 18.0 CALM 0 2 1020.9 - 0.0 - - - - - - -
23/10:30pm 19.4 ENE 3 4 1020.9 - 0.0 - - - - - - -
23/10:00pm 19.5 ENE 4 5 1020.7 - 0.0 - - - - - - -
23/09:30pm 20.5 ENE 3 6 1020.7 - 0.0 - - - - - - -
23/09:00pm 20.8 ENE 4 6 1020.4 - 0.0 - - - - - - -
23/08:30pm 21.5 NE 6 8 1020.1 - 0.0 - - - - - - -
23/08:00pm 21.3 NNE 6 8 1019.5 - 0.0 - - - - - - -
23/07:30pm 21.8 NNE 7 11 1019.1 - 0.0 - - - - - - -
23/07:00pm 22.2 NNE 10 13 1018.7 - 0.0 - - - - - - -
23/06:30pm 22.7 NNE 11 16 1018.6 - 0.0 - - - - - - -
23/06:00pm 23.1 N 10 15 1018.4 - 0.0 - - - - - - -
23/05:30pm 23.9 NNE 11 14 1018.1 - 0.0 - - - - - - -
23/05:00pm 24.8 NNE 11 15 1017.7 - 0.0 - - - - - - -
23/04:30pm 25.4 NNE 10 16 1017.3 - 0.0 - - - - - - -
23/04:00pm 25.4 NNE 12 17 1017.0 - 0.0 - - - - - - -
23/03:30pm 26.0 NNE 13 18 1016.9 - 0.0 - - - - - - -
23/03:00pm 25.8 NNE 13 17 1016.8 - 0.0 - - - - - - -
23/02:30pm 26.5 NNE 13 18 1016.8 - 0.0 - - - - - - -
23/02:00pm 26.8 N 13 20 1017.0 - 0.0 - - - - - - -
23/01:30pm 27.4 NNE 11 16 1017.1 - 0.0 - - - - - - -
23/01:00pm 28.1 NE 11 15 1017.4 - 0.0 - - - - - - -
23/12:30pm 28.4 NNE 12 17 1017.9 - 0.0 - - - - - - -
23/12:00pm 28.9 NE 11 17 1018.4 - 0.0 - - - - - - -
23/11:30am 28.7 ENE 7 13 1019.1 - 0.0 - - - - - - -
23/11:00am 27.6 E 6 11 1019.4 - 0.0 - - - - - - -
23/10:30am 26.9 E 6 11 1020.0 - 0.0 - - - - - - -
23/10:00am 25.7 E 5 12 1020.4 - 0.0 - - - - - - -
23/09:30am 25.8 E 6 11 1020.7 - 0.0 - - - - - - -
23/09:00am 24.3 SE 7 11 1020.9 - 0.0 - - - - - - -

Other Formats:

Comma delimited format used in spreadsheet applications
http://www.bom.gov.au/fwo/IDQ60701/IDQ60701.95369.axf

JavaScript Object Notation format (JSON) in row-major order
http://www.bom.gov.au/fwo/IDQ60701/IDQ60701.95369.json